createdAt,value
2023-04-04T00:01:49.528Z,6.83
2023-04-04T00:04:16.382Z,6.07
2023-04-04T00:06:45.749Z,5.53
2023-04-04T00:09:13.027Z,4.20
2023-04-04T00:11:41.799Z,8.10
2023-04-04T00:14:08.854Z,8.50
2023-04-04T00:16:36.353Z,8.27
2023-04-04T00:19:03.496Z,6.27
2023-04-04T00:21:30.636Z,8.67
2023-04-04T00:23:57.799Z,5.13
2023-04-04T00:26:26.366Z,5.07
2023-04-04T00:28:53.375Z,5.13
2023-04-04T00:31:21.576Z,6.10
2023-04-04T00:33:51.205Z,6.00
2023-04-04T00:36:20.834Z,5.70
2023-04-04T00:38:50.422Z,7.13
2023-04-04T00:41:17.468Z,5.30
2023-04-04T00:43:45.230Z,5.33
2023-04-04T00:46:15.079Z,6.43
2023-04-04T00:48:43.131Z,6.80
2023-04-04T00:51:09.978Z,6.47
2023-04-04T00:53:38.235Z,6.03
2023-04-04T00:56:05.662Z,3.73
2023-04-04T00:58:32.490Z,4.20
2023-04-04T01:01:07.923Z,5.60
2023-04-04T01:03:35.411Z,6.73
2023-04-04T01:06:02.862Z,4.30
2023-04-04T01:08:30.403Z,5.07
2023-04-04T01:10:57.900Z,5.47
2023-04-04T01:13:24.955Z,4.87
2023-04-04T01:15:51.879Z,7.93
2023-04-04T01:18:22.406Z,5.90
2023-04-04T01:21:02.558Z,6.07
2023-04-04T01:23:42.796Z,5.10
2023-04-04T01:26:10.091Z,7.67
2023-04-04T01:28:36.874Z,6.27
2023-04-04T01:31:07.403Z,7.17
2023-04-04T01:33:43.347Z,6.00
2023-04-04T01:36:36.009Z,4.17
2023-04-04T01:39:18.352Z,5.57
2023-04-04T01:41:48.550Z,6.83
2023-04-04T01:44:17.637Z,8.33
2023-04-04T01:46:44.598Z,7.30
2023-04-04T01:49:11.532Z,4.80
2023-04-04T01:51:38.977Z,4.93
2023-04-04T01:54:05.813Z,4.80
2023-04-04T01:56:32.986Z,5.97
2023-04-04T01:58:59.690Z,5.03
2023-04-04T02:01:26.493Z,5.67
2023-04-04T02:03:53.717Z,6.57
2023-04-04T02:06:23.445Z,7.90
2023-04-04T02:08:50.292Z,5.90
2023-04-04T02:11:17.554Z,6.60
2023-04-04T02:13:46.413Z,7.67
2023-04-04T02:16:13.671Z,4.63
2023-04-04T02:18:43.274Z,5.37
2023-04-04T02:21:10.105Z,6.50
2023-04-04T02:23:36.974Z,5.73
2023-04-04T02:26:03.732Z,4.90
2023-04-04T02:28:31.424Z,6.90
2023-04-04T02:31:04.913Z,6.97
2023-04-04T02:33:31.921Z,5.80
2023-04-04T02:35:59.514Z,3.90
2023-04-04T02:38:29.467Z,5.30
2023-04-04T02:40:56.255Z,5.90
2023-04-04T02:43:23.067Z,3.67
2023-04-04T02:45:49.784Z,6.97
2023-04-04T02:48:16.455Z,6.87
2023-04-04T02:50:43.485Z,4.97
2023-04-04T02:53:10.649Z,6.83
2023-04-04T02:55:37.322Z,4.97
2023-04-04T02:58:04.062Z,5.10
2023-04-04T03:00:30.798Z,3.67
2023-04-04T03:02:58.094Z,8.97
2023-04-04T03:05:26.897Z,6.30
2023-04-04T03:07:58.336Z,5.77
2023-04-04T03:10:27.369Z,5.17
2023-04-04T03:12:54.046Z,6.57
2023-04-04T03:15:21.548Z,7.10
2023-04-04T03:17:48.730Z,10.07
2023-04-04T03:20:16.234Z,4.73
2023-04-04T03:22:45.887Z,5.07
2023-04-04T03:25:12.784Z,6.10
2023-04-04T03:27:39.904Z,5.33
2023-04-04T03:30:08.838Z,4.30
2023-04-04T03:32:39.436Z,7.37
2023-04-04T03:35:09.441Z,4.13
2023-04-04T03:37:39.764Z,6.87
2023-04-04T03:40:09.976Z,4.50
2023-04-04T03:42:37.340Z,5.50
2023-04-04T03:45:04.387Z,8.03
2023-04-04T03:47:31.147Z,4.60
2023-04-04T03:49:57.915Z,5.67
2023-04-04T03:52:30.391Z,11.33
2023-04-04T03:54:57.076Z,4.67
2023-04-04T03:57:23.794Z,5.00
2023-04-04T03:59:50.481Z,7.10
2023-04-04T04:02:17.409Z,5.20
2023-04-04T04:04:44.253Z,5.90
2023-04-04T04:07:10.920Z,5.70
2023-04-04T04:09:38.142Z,7.80
2023-04-04T04:12:04.882Z,5.40
2023-04-04T04:14:31.590Z,6.53
2023-04-04T04:16:58.315Z,8.70
2023-04-04T04:19:25.157Z,4.67
2023-04-04T04:21:52.001Z,7.93
2023-04-04T04:24:18.758Z,5.73
2023-04-04T04:26:45.548Z,7.47
2023-04-04T04:29:12.448Z,6.20
2023-04-04T04:31:42.356Z,7.43
2023-04-04T04:34:12.166Z,7.57
2023-04-04T04:36:38.990Z,6.67
2023-04-04T04:39:07.937Z,6.93
2023-04-04T04:41:34.720Z,5.63
2023-04-04T04:44:02.161Z,8.63
2023-04-04T04:46:28.948Z,6.93
2023-04-04T04:48:55.672Z,5.70
2023-04-04T04:51:25.093Z,7.53
2023-04-04T04:53:51.985Z,6.63
2023-04-04T04:56:18.928Z,8.10
2023-04-04T04:58:47.571Z,7.17
2023-04-04T05:01:14.657Z,5.23
2023-04-04T05:03:44.556Z,7.23
2023-04-04T05:06:11.479Z,7.33
2023-04-04T05:08:41.639Z,5.93
2023-04-04T05:11:08.483Z,7.30
2023-04-04T05:13:35.230Z,6.63
2023-04-04T05:16:02.000Z,7.17
2023-04-04T05:18:28.811Z,7.03
2023-04-04T05:20:56.410Z,9.87
2023-04-04T05:23:25.814Z,8.97
2023-04-04T05:25:53.462Z,5.63
2023-04-04T05:28:20.943Z,9.87
2023-04-04T05:30:47.793Z,6.53
2023-04-04T05:33:17.450Z,9.03
2023-04-04T05:35:44.362Z,6.57
2023-04-04T05:38:11.179Z,9.27
2023-04-04T05:40:38.242Z,6.40
2023-04-04T05:43:05.303Z,6.27
2023-04-04T05:45:32.058Z,5.90
2023-04-04T05:47:58.849Z,8.80
2023-04-04T05:50:28.460Z,6.77
2023-04-04T05:52:55.998Z,8.80
2023-04-04T05:55:23.154Z,5.50
2023-04-04T05:57:51.192Z,8.20
2023-04-04T06:00:19.466Z,7.33
2023-04-04T06:02:46.463Z,12.40
2023-04-04T06:05:13.523Z,6.30
2023-04-04T06:07:40.391Z,9.20
2023-04-04T06:10:10.377Z,7.90
2023-04-04T06:12:37.084Z,8.90
2023-04-04T06:15:04.267Z,6.53
2023-04-04T06:17:31.145Z,7.73
2023-04-04T06:19:57.954Z,7.73
2023-04-04T06:22:24.722Z,7.30
2023-04-04T06:24:51.492Z,6.67
2023-04-04T06:27:18.310Z,4.90
2023-04-04T06:29:45.118Z,8.93
2023-04-04T06:32:12.580Z,8.37
2023-04-04T06:34:39.300Z,6.47
2023-04-04T06:37:06.120Z,9.17
2023-04-04T06:39:34.350Z,7.27
2023-04-04T06:42:01.409Z,8.43
2023-04-04T06:44:28.146Z,6.60
2023-04-04T06:46:55.191Z,8.13
2023-04-04T06:49:22.133Z,7.50
2023-04-04T06:51:50.948Z,7.20
2023-04-04T06:54:18.181Z,8.20
2023-04-04T06:56:44.917Z,5.33
2023-04-04T06:59:12.660Z,10.48
2023-04-04T07:01:39.428Z,6.83
2023-04-04T07:04:06.138Z,7.93
2023-04-04T07:06:32.850Z,8.90
2023-04-04T07:08:59.622Z,8.57
2023-04-04T07:11:29.013Z,12.30
2023-04-04T07:13:56.290Z,8.80
2023-04-04T07:16:23.226Z,7.67
2023-04-04T07:18:49.997Z,9.43
2023-04-04T07:21:17.536Z,7.17
2023-04-04T07:23:44.378Z,10.60
2023-04-04T07:26:11.781Z,7.93
2023-04-04T07:28:38.481Z,9.90
2023-04-04T07:31:05.423Z,9.57
2023-04-04T07:33:35.146Z,10.57
2023-04-04T07:36:03.253Z,10.17
2023-04-04T07:38:29.935Z,8.83
2023-04-04T07:40:56.920Z,13.83
2023-04-04T07:43:25.959Z,12.07
2023-04-04T07:45:55.148Z,10.27
2023-04-04T07:48:22.985Z,10.43
2023-04-04T07:50:49.943Z,7.30
2023-04-04T07:53:16.737Z,11.10
2023-04-04T07:55:43.456Z,10.27
2023-04-04T07:58:10.852Z,10.60
2023-04-04T08:00:37.838Z,9.83
2023-04-04T08:03:04.937Z,9.10
2023-04-04T08:05:31.801Z,6.93
2023-04-04T08:07:58.594Z,7.00
2023-04-04T08:10:25.542Z,9.67
2023-04-04T08:12:53.216Z,7.20
2023-04-04T08:15:20.020Z,6.70
2023-04-04T08:17:46.868Z,7.43
2023-04-04T08:20:13.834Z,6.10
2023-04-04T08:22:42.121Z,8.10
2023-04-04T08:25:10.870Z,6.80
2023-04-04T08:27:45.003Z,7.00
2023-04-04T08:30:19.009Z,7.13
2023-04-04T08:32:46.180Z,4.90
2023-04-04T08:35:13.160Z,5.03
2023-04-04T08:37:45.314Z,5.23
2023-04-04T08:40:15.905Z,6.07
2023-04-04T08:42:46.250Z,3.93
2023-04-04T08:45:19.733Z,4.93
2023-04-04T08:47:50.456Z,8.87
2023-04-04T08:50:21.533Z,5.10
2023-04-04T08:52:49.202Z,3.33
2023-04-04T08:55:15.991Z,3.00
2023-04-04T08:57:43.504Z,5.13
2023-04-04T09:00:10.946Z,5.67
2023-04-04T09:02:45.966Z,4.07
2023-04-04T09:05:14.153Z,6.07
2023-04-04T09:07:41.107Z,7.37
2023-04-04T09:10:17.372Z,6.23
2023-04-04T09:12:47.491Z,4.70
2023-04-04T09:15:15.206Z,4.63
2023-04-04T09:17:42.503Z,5.40
2023-04-04T09:20:38.552Z,4.53
2023-04-04T09:23:08.211Z,5.33
2023-04-04T09:25:36.407Z,3.77
2023-04-04T09:28:05.840Z,4.10
2023-04-04T09:30:34.220Z,5.00
2023-04-04T09:33:05.025Z,4.80
2023-04-04T09:35:39.560Z,4.37
2023-04-04T09:38:07.420Z,2.57
2023-04-04T09:40:41.148Z,2.90
2023-04-04T09:43:12.373Z,4.67
2023-04-04T09:45:48.450Z,4.43
2023-04-04T09:48:27.579Z,6.00
2023-04-04T09:50:54.723Z,7.30
2023-04-04T09:53:21.677Z,4.07
2023-04-04T09:55:56.916Z,4.47
2023-04-04T09:58:28.857Z,3.23
2023-04-04T10:01:02.996Z,4.63
2023-04-04T10:03:30.823Z,3.80
2023-04-04T10:06:06.924Z,4.80
2023-04-04T10:08:35.169Z,6.63
2023-04-04T10:11:11.984Z,5.43
2023-04-04T10:13:46.842Z,4.97
2023-04-04T10:16:14.297Z,5.27
2023-04-04T10:18:41.523Z,4.20
2023-04-04T10:21:15.598Z,6.83
2023-04-04T10:23:45.544Z,4.73
2023-04-04T10:26:18.263Z,5.57
2023-04-04T10:28:45.523Z,3.27
2023-04-04T10:31:28.580Z,3.93
2023-04-04T10:34:17.560Z,6.13
2023-04-04T10:37:07.174Z,4.27
2023-04-04T10:39:38.039Z,5.57
2023-04-04T10:42:07.258Z,3.80
2023-04-04T10:44:41.577Z,2.90
2023-04-04T10:47:21.814Z,4.17
2023-04-04T10:49:50.196Z,6.63
2023-04-04T10:52:19.859Z,3.93
2023-04-04T10:54:57.412Z,3.73
2023-04-04T10:57:25.269Z,4.40
2023-04-04T11:00:08.701Z,6.30
2023-04-04T11:02:58.481Z,4.77
2023-04-04T11:05:49.070Z,5.77
2023-04-04T11:08:24.442Z,5.67
2023-04-04T11:10:53.266Z,4.40
2023-04-04T11:13:35.206Z,6.17
2023-04-04T11:16:07.626Z,5.87
2023-04-04T11:18:43.995Z,5.80
2023-04-04T11:21:26.469Z,3.77
2023-04-04T11:23:59.182Z,6.50
2023-04-04T11:26:26.354Z,4.97
2023-04-04T11:28:57.178Z,5.27
2023-04-04T11:31:29.806Z,5.83
2023-04-04T11:34:02.798Z,4.37
2023-04-04T11:36:35.819Z,5.93
2023-04-04T11:39:22.935Z,4.67
2023-04-04T11:42:08.909Z,3.13
2023-04-04T11:44:43.237Z,4.07
2023-04-04T11:47:12.179Z,7.23
2023-04-04T11:49:41.685Z,4.40
2023-04-04T11:52:14.028Z,6.90
2023-04-04T11:54:42.781Z,5.87
2023-04-04T11:57:20.382Z,4.57
2023-04-04T11:59:49.511Z,5.73
2023-04-04T12:02:34.207Z,4.77
2023-04-04T12:05:01.981Z,4.03
2023-04-04T12:07:29.418Z,4.17
2023-04-04T12:09:57.743Z,4.83
2023-04-04T12:12:26.310Z,6.30
2023-04-04T12:15:00.184Z,4.23
2023-04-04T12:17:34.773Z,4.53
2023-04-04T12:20:02.201Z,5.07
2023-04-04T12:22:35.068Z,4.50
2023-04-04T12:25:06.342Z,4.47
2023-04-04T12:27:34.217Z,7.30
2023-04-04T12:30:01.455Z,4.97
2023-04-04T12:32:32.096Z,5.20
2023-04-04T12:35:01.284Z,7.33
2023-04-04T12:37:31.224Z,5.00
2023-04-04T12:39:58.464Z,5.77
2023-04-04T12:42:25.913Z,7.33
2023-04-04T12:44:54.281Z,4.73
2023-04-04T12:47:24.299Z,6.40
2023-04-04T12:49:54.854Z,3.97
2023-04-04T12:52:32.153Z,4.07
2023-04-04T12:55:08.572Z,4.80
2023-04-04T12:57:39.045Z,3.80
2023-04-04T13:00:08.341Z,5.53
2023-04-04T13:02:36.591Z,4.63
2023-04-04T13:05:05.450Z,4.33
2023-04-04T13:07:39.150Z,6.60
2023-04-04T13:10:06.664Z,4.70
2023-04-04T13:12:52.308Z,7.13
2023-04-04T13:15:19.648Z,7.53
2023-04-04T13:17:48.958Z,5.67
2023-04-04T13:20:20.978Z,5.90
2023-04-04T13:22:48.153Z,6.77
2023-04-04T13:25:15.118Z,6.20
2023-04-04T13:27:42.095Z,4.63
2023-04-04T13:30:10.158Z,8.80
2023-04-04T13:32:38.339Z,5.63
2023-04-04T13:35:05.803Z,6.53
2023-04-04T13:37:32.554Z,6.23
2023-04-04T13:39:59.546Z,5.83
2023-04-04T13:42:30.383Z,11.67
2023-04-04T13:45:03.563Z,4.77
2023-04-04T13:47:30.354Z,7.30
2023-04-04T13:49:57.173Z,6.20
2023-04-04T13:52:24.057Z,6.10
2023-04-04T13:54:51.012Z,7.67
2023-04-04T13:57:17.753Z,7.63
2023-04-04T13:59:44.531Z,5.37
2023-04-04T14:02:11.321Z,6.87
2023-04-04T14:04:38.691Z,5.73
2023-04-04T14:07:06.187Z,5.63
2023-04-04T14:09:33.074Z,8.77
2023-04-04T14:11:59.864Z,8.10
2023-04-04T14:14:26.595Z,5.93
2023-04-04T14:16:53.415Z,5.93
2023-04-04T14:19:20.299Z,5.23
2023-04-04T14:21:47.965Z,5.97
2023-04-04T14:24:17.801Z,4.63
2023-04-04T14:26:44.619Z,5.83
2023-04-04T14:29:11.390Z,5.47
2023-04-04T14:31:38.147Z,5.57
2023-04-04T14:34:05.290Z,5.13
2023-04-04T14:36:32.166Z,4.37
2023-04-04T14:39:01.959Z,7.17
2023-04-04T14:41:29.037Z,5.67
2023-04-04T14:43:56.016Z,6.50
2023-04-04T14:46:23.429Z,4.77
2023-04-04T14:48:51.322Z,6.43
2023-04-04T14:51:19.723Z,6.50
2023-04-04T14:53:47.393Z,7.33
2023-04-04T14:56:14.539Z,7.73
2023-04-04T14:58:43.402Z,5.53
2023-04-04T15:01:10.239Z,6.53
2023-04-04T15:03:38.690Z,5.13
2023-04-04T15:06:05.980Z,5.73
2023-04-04T15:08:32.921Z,7.57
2023-04-04T15:11:01.704Z,7.37
2023-04-04T15:13:28.455Z,5.83
2023-04-04T15:15:55.376Z,7.37
2023-04-04T15:18:22.205Z,5.17
2023-04-04T15:20:48.958Z,6.23
2023-04-04T15:23:15.803Z,8.80
2023-04-04T15:25:42.578Z,6.43
2023-04-04T15:28:09.499Z,6.87
2023-04-04T15:30:36.369Z,6.50
2023-04-04T15:33:03.220Z,4.70
2023-04-04T15:35:29.977Z,7.80
2023-04-04T15:37:56.788Z,8.60
2023-04-04T15:40:23.557Z,7.03
2023-04-04T15:42:51.322Z,9.00
2023-04-04T15:45:18.333Z,6.40
2023-04-04T15:47:48.320Z,4.90
2023-04-04T15:50:15.200Z,10.10
2023-04-04T15:52:42.130Z,8.07
2023-04-04T15:55:14.621Z,6.33
2023-04-04T15:57:44.419Z,7.67
2023-04-04T16:00:12.766Z,7.30
2023-04-04T16:02:39.700Z,5.80
2023-04-04T16:05:06.997Z,6.80
2023-04-04T16:07:36.234Z,7.33
2023-04-04T16:10:06.161Z,8.10
2023-04-04T16:12:32.928Z,7.10
2023-04-04T16:15:00.266Z,9.63
2023-04-04T16:17:27.044Z,6.57
2023-04-04T16:19:53.911Z,10.60
2023-04-04T16:22:20.759Z,9.67
2023-04-04T16:24:47.528Z,5.03
2023-04-04T16:27:17.204Z,6.77
2023-04-04T16:29:43.929Z,6.97
2023-04-04T16:32:10.861Z,8.30
2023-04-04T16:34:38.856Z,7.63
2023-04-04T16:37:05.844Z,8.37
2023-04-04T16:39:32.677Z,8.23
2023-04-04T16:42:00.493Z,8.20
2023-04-04T16:44:27.337Z,9.53
2023-04-04T16:46:54.089Z,6.00
2023-04-04T16:49:20.978Z,8.70
2023-04-04T16:51:47.828Z,5.80
2023-04-04T16:54:14.652Z,8.33
2023-04-04T16:56:42.110Z,8.47
2023-04-04T16:59:08.949Z,7.87
2023-04-04T17:01:37.780Z,6.17
2023-04-04T17:04:07.396Z,9.70
2023-04-04T17:06:34.148Z,8.60
2023-04-04T17:09:01.033Z,7.30
2023-04-04T17:11:28.279Z,7.10
2023-04-04T17:14:00.765Z,6.90
2023-04-04T17:16:27.919Z,7.97
2023-04-04T17:18:55.147Z,8.17
2023-04-04T17:21:22.718Z,8.13
2023-04-04T17:23:49.460Z,7.53
2023-04-04T17:26:18.572Z,9.00
2023-04-04T17:28:45.798Z,10.40
2023-04-04T17:31:16.469Z,8.23
2023-04-04T17:33:43.559Z,10.77
2023-04-04T17:36:19.423Z,6.07
2023-04-04T17:38:46.756Z,6.87
2023-04-04T17:41:19.732Z,4.87
2023-04-04T17:43:46.479Z,5.87
2023-04-04T17:46:13.453Z,7.43
2023-04-04T17:48:43.620Z,8.30
2023-04-04T17:51:11.554Z,8.17
2023-04-04T17:53:38.316Z,9.77
2023-04-04T17:56:05.390Z,6.90
2023-04-04T17:58:32.577Z,9.50
2023-04-04T18:01:02.572Z,7.07
2023-04-04T18:03:29.560Z,11.07
2023-04-04T18:05:57.042Z,9.03
2023-04-04T18:08:24.307Z,8.20
2023-04-04T18:10:52.309Z,8.63
2023-04-04T18:13:19.286Z,7.27
2023-04-04T18:15:46.311Z,8.10
2023-04-04T18:18:13.262Z,8.70
2023-04-04T18:20:40.191Z,6.93
2023-04-04T18:23:07.008Z,9.00
2023-04-04T18:25:33.831Z,8.77
2023-04-04T18:28:02.095Z,8.43
2023-04-04T18:30:33.131Z,8.17
2023-04-04T18:33:02.718Z,9.67
2023-04-04T18:35:29.434Z,7.23
2023-04-04T18:37:56.381Z,8.77
2023-04-04T18:40:23.096Z,6.83
2023-04-04T18:42:51.560Z,7.33
2023-04-04T18:45:20.896Z,8.33
2023-04-04T18:47:47.983Z,8.27
2023-04-04T18:50:15.031Z,9.73
2023-04-04T18:52:45.685Z,9.33
2023-04-04T18:55:12.565Z,9.77
2023-04-04T18:57:41.970Z,8.37
2023-04-04T19:00:09.846Z,8.90
2023-04-04T19:02:37.465Z,7.20
2023-04-04T19:05:05.030Z,7.90
2023-04-04T19:07:32.782Z,7.80
2023-04-04T19:10:04.011Z,8.33
2023-04-04T19:12:31.236Z,8.33
2023-04-04T19:14:59.357Z,9.70
2023-04-04T19:17:26.117Z,7.33
2023-04-04T19:19:52.853Z,7.00
2023-04-04T19:22:19.782Z,9.30
2023-04-04T19:24:46.496Z,9.73
2023-04-04T19:27:16.675Z,9.50
2023-04-04T19:29:43.404Z,8.07
2023-04-04T19:32:16.997Z,8.93
2023-04-04T19:34:44.764Z,8.90
2023-04-04T19:39:53.698Z,6.70
2023-04-04T19:42:27.625Z,9.50
2023-04-04T19:44:54.406Z,11.47
2023-04-04T19:47:21.244Z,9.03
2023-04-04T19:49:51.923Z,10.07
2023-04-04T19:52:22.743Z,11.27
2023-04-04T19:54:49.589Z,8.97
2023-04-04T19:57:19.242Z,9.93
2023-04-04T20:00:09.214Z,13.97
2023-04-04T20:02:50.009Z,9.03
2023-04-04T20:05:53.670Z,7.97
2023-04-04T20:08:21.030Z,9.80
2023-04-04T20:10:48.379Z,9.27
2023-04-04T20:13:17.390Z,12.90
2023-04-04T20:15:47.518Z,10.17
2023-04-04T20:18:25.221Z,9.47
2023-04-04T20:20:59.471Z,11.50
2023-04-04T20:23:27.542Z,7.77
2023-04-04T20:25:54.893Z,10.70
2023-04-04T20:28:25.942Z,8.93
2023-04-04T20:30:53.890Z,9.83
2023-04-04T20:33:40.322Z,9.17
2023-04-04T20:36:31.697Z,12.33
2023-04-04T20:38:59.234Z,15.07
2023-04-04T20:41:26.447Z,8.07
2023-04-04T20:43:58.379Z,9.97
2023-04-04T20:46:27.304Z,10.83
2023-04-04T20:48:56.721Z,11.27
2023-04-04T20:51:29.317Z,10.27
2023-04-04T20:53:58.959Z,11.13
2023-04-04T20:56:41.209Z,13.77
2023-04-04T20:59:34.819Z,10.67
2023-04-04T21:02:17.219Z,12.33
2023-04-04T21:04:45.773Z,10.10
2023-04-04T21:07:37.652Z,8.97
2023-04-04T21:10:21.871Z,10.77
2023-04-04T21:12:48.784Z,11.83
2023-04-04T21:15:28.696Z,10.23
2023-04-04T21:18:01.310Z,10.30
2023-04-04T21:20:46.555Z,10.20
2023-04-04T21:23:28.878Z,12.10
2023-04-04T21:26:08.169Z,11.77
2023-04-04T21:28:38.340Z,12.30
2023-04-04T21:31:14.061Z,10.60
2023-04-04T21:33:45.482Z,13.70
2023-04-04T21:36:27.937Z,11.73
2023-04-04T21:38:59.730Z,10.10
2023-04-04T21:41:30.646Z,11.47
2023-04-04T21:44:06.251Z,12.00
2023-04-04T21:46:34.890Z,11.03
2023-04-04T21:49:01.879Z,11.10
2023-04-04T21:51:29.456Z,11.07
2023-04-04T21:53:56.298Z,12.07
2023-04-04T21:56:27.372Z,10.27
2023-04-04T21:58:55.674Z,10.97
2023-04-04T22:01:24.872Z,12.93
2023-04-04T22:03:51.608Z,12.53
2023-04-04T22:06:22.382Z,10.63
2023-04-04T22:08:49.176Z,12.20
2023-04-04T22:11:19.553Z,13.50
2023-04-04T22:13:50.664Z,10.33
2023-04-04T22:16:18.881Z,11.57
2023-04-04T22:18:54.552Z,13.87
2023-04-04T22:21:26.007Z,13.90
2023-04-04T22:23:55.662Z,10.90
2023-04-04T22:26:29.061Z,12.50
2023-04-04T22:29:00.356Z,14.37
2023-04-04T22:31:28.581Z,12.90
2023-04-04T22:33:55.998Z,15.53
2023-04-04T22:36:23.837Z,11.43
2023-04-04T22:38:59.175Z,12.03
2023-04-04T22:41:27.950Z,13.37
2023-04-04T22:43:56.161Z,11.33
2023-04-04T22:46:23.142Z,10.60
2023-04-04T22:48:50.084Z,11.77
2023-04-04T22:51:17.174Z,11.63
2023-04-04T22:53:44.367Z,11.80
2023-04-04T22:56:11.622Z,15.27
2023-04-04T22:58:41.100Z,16.77
2023-04-04T23:01:07.840Z,12.27
2023-04-04T23:03:34.682Z,13.27
2023-04-04T23:06:01.727Z,9.40
2023-04-04T23:08:28.605Z,13.00
2023-04-04T23:10:55.835Z,11.60
2023-04-04T23:13:22.882Z,14.43
2023-04-04T23:15:49.706Z,12.13
2023-04-04T23:18:17.712Z,12.70
2023-04-04T23:20:44.731Z,14.63
2023-04-04T23:23:12.007Z,11.50
2023-04-04T23:25:39.170Z,12.73
2023-04-04T23:28:06.049Z,10.60
2023-04-04T23:30:32.888Z,10.90
2023-04-04T23:32:59.616Z,15.30
2023-04-04T23:35:26.448Z,12.20
2023-04-04T23:37:53.182Z,11.03
2023-04-04T23:40:20.010Z,13.63
2023-04-04T23:42:46.687Z,14.20
2023-04-04T23:45:13.539Z,14.70
2023-04-04T23:47:40.794Z,12.00
2023-04-04T23:50:07.993Z,12.33
2023-04-04T23:52:35.385Z,11.73
2023-04-04T23:55:02.127Z,11.30
2023-04-04T23:57:28.946Z,11.07
2023-04-04T23:59:55.831Z,13.93
